Time,TemperatureF,DewpointF,PressureIn,WindDirection,WindDirectionDegrees,WindSpeedMPH,WindSpeedGustMPH,Humidity,HourlyPrecipIn,Conditions,Clouds,dailyrainin,SoftwareType,DateUTC
2017-10-21 00:02:00,70.7,19.2,30.13,SSE,158,2.5,2.5,14,0.00,,---,0.00,VWS V14.01,2017-10-20 16:02:00,
2017-10-21 00:07:00,70.7,19.2,30.10,SSE,158,2.5,2.5,14,0.00,,---,0.00,VWS V14.01,2017-10-20 16:07:00,
2017-10-21 00:12:00,70.7,19.2,30.10,SSE,158,2.5,2.5,14,0.00,,---,0.00,VWS V14.01,2017-10-20 16:12:00,
2017-10-21 00:17:00,70.7,19.2,30.10,SSE,158,2.5,2.5,14,0.00,,---,0.00,VWS V14.01,2017-10-20 16:17:00,
2017-10-21 00:22:00,70.3,18.9,30.10,SSE,158,2.5,2.5,14,0.00,,---,0.00,VWS V14.01,2017-10-20 16:22:00,
2017-10-21 00:27:00,70.2,18.8,30.10,SSE,158,2.5,2.5,14,0.00,,---,0.00,VWS V14.01,2017-10-20 16:27:00,
2017-10-21 00:32:00,69.8,18.5,30.10,SSE,158,2.5,2.5,14,0.00,,---,0.00,VWS V14.01,2017-10-20 16:32:00,
2017-10-21 00:37:00,69.6,20.0,30.10,SSE,158,2.5,2.5,15,0.00,,---,0.00,VWS V14.01,2017-10-20 16:37:00,
2017-10-21 00:42:00,69.4,19.8,30.10,SSE,158,2.5,2.5,15,0.00,,---,0.00,VWS V14.01,2017-10-20 16:42:00,
2017-10-21 00:47:00,69.3,19.7,30.10,SSE,158,2.5,2.5,15,0.00,,---,0.00,VWS V14.01,2017-10-20 16:47:00,
2017-10-21 00:52:00,69.1,19.5,30.10,SSE,158,2.5,2.5,15,0.00,,---,0.00,VWS V14.01,2017-10-20 16:52:00,
2017-10-21 00:57:00,68.9,19.4,30.10,SSE,158,2.5,2.5,15,0.00,,---,0.00,VWS V14.01,2017-10-20 16:57:00,
2017-10-21 01:03:00,68.7,19.2,30.10,SSE,158,2.5,2.5,15,0.00,,---,0.00,VWS V14.01,2017-10-20 17:03:00,
2017-10-21 01:08:00,68.5,19.1,30.07,SSE,158,2.5,2.5,15,0.00,,---,0.00,VWS V14.01,2017-10-20 17:08:00,
2017-10-21 01:13:00,68.2,18.8,30.07,SSE,158,2.5,2.5,15,0.00,,---,0.00,VWS V14.01,2017-10-20 17:13:00,
2017-10-21 01:18:00,68.0,18.7,30.07,SSE,158,2.5,2.5,15,0.00,,---,0.00,VWS V14.01,2017-10-20 17:18:00,
2017-10-21 01:23:00,67.6,18.4,30.07,SSE,158,2.5,2.5,15,0.00,,---,0.00,VWS V14.01,2017-10-20 17:23:00,
2017-10-21 01:28:00,67.3,18.1,30.07,SSE,158,2.5,2.5,15,0.00,,---,0.00,VWS V14.01,2017-10-20 17:28:00,
2017-10-21 01:33:00,67.1,17.9,30.07,SSE,158,2.5,2.5,15,0.00,,---,0.00,VWS V14.01,2017-10-20 17:33:00,
2017-10-21 01:38:00,66.9,17.8,30.07,SSE,158,2.5,2.5,15,0.00,,---,0.00,VWS V14.01,2017-10-20 17:38:00,
2017-10-21 01:43:00,66.7,17.6,30.07,SSE,158,2.5,2.5,15,0.00,,---,0.00,VWS V14.01,2017-10-20 17:43:00,
2017-10-21 01:48:00,66.6,17.5,30.07,SSE,158,2.5,2.5,15,0.00,,---,0.00,VWS V14.01,2017-10-20 17:48:00,
2017-10-21 01:53:00,66.6,17.5,30.07,SSE,158,2.5,2.5,15,0.00,,---,0.00,VWS V14.01,2017-10-20 17:53:00,
2017-10-21 01:58:00,66.2,17.2,30.07,SSE,158,2.5,2.5,15,0.00,,---,0.00,VWS V14.01,2017-10-20 17:58:00,
2017-10-21 02:03:00,66.2,17.2,30.07,SSE,158,2.5,2.5,15,0.00,,---,0.00,VWS V14.01,2017-10-20 18:03:00,
2017-10-21 02:08:00,66.0,17.1,30.04,SSE,158,2.5,2.5,15,0.00,,---,0.00,VWS V14.01,2017-10-20 18:08:00,
2017-10-21 02:13:00,65.8,16.9,30.04,SSE,158,2.5,2.5,15,0.00,,---,0.00,VWS V14.01,2017-10-20 18:13:00,
2017-10-21 02:18:00,66.0,17.1,30.04,SSE,158,2.5,2.5,15,0.00,,---,0.00,VWS V14.01,2017-10-20 18:18:00,
2017-10-21 02:23:00,66.2,17.2,30.04,SSE,158,2.5,2.5,15,0.00,,---,0.00,VWS V14.01,2017-10-20 18:23:00,
2017-10-21 02:28:00,66.2,17.2,30.04,SSE,158,2.5,2.5,15,0.00,,---,0.00,VWS V14.01,2017-10-20 18:28:00,
2017-10-21 02:33:00,66.2,17.2,30.04,SSE,158,2.5,2.5,15,0.00,,---,0.00,VWS V14.01,2017-10-20 18:33:00,
2017-10-21 02:38:00,66.2,17.2,30.04,SSE,158,2.5,2.5,15,0.00,,---,0.00,VWS V14.01,2017-10-20 18:38:00,
2017-10-21 02:43:00,66.0,17.1,30.04,SSE,158,2.5,2.5,15,0.00,,---,0.00,VWS V14.01,2017-10-20 18:43:00,
2017-10-21 02:48:00,66.2,17.2,30.04,SSE,158,2.5,2.5,15,0.00,,---,0.00,VWS V14.01,2017-10-20 18:48:00,
2017-10-21 02:53:00,66.2,17.2,30.07,SSE,158,2.5,2.5,15,0.00,,---,0.00,VWS V14.01,2017-10-20 18:53:00,
2017-10-21 03:04:00,66.0,17.1,30.07,SSE,158,2.5,2.5,15,0.00,,---,0.00,VWS V14.01,2017-10-20 19:04:00,
2017-10-21 03:09:00,66.2,17.2,30.07,SSE,158,2.5,2.5,15,0.00,,---,0.00,VWS V14.01,2017-10-20 19:09:00,
2017-10-21 03:14:00,66.2,17.2,30.07,SSE,158,2.5,2.5,15,0.00,,---,0.00,VWS V14.01,2017-10-20 19:14:00,
2017-10-21 03:19:00,66.0,17.1,30.07,SSE,158,2.5,2.5,15,0.00,,---,0.00,VWS V14.01,2017-10-20 19:19:00,
2017-10-21 03:25:00,65.7,16.8,30.07,SSE,158,2.5,2.5,15,0.00,,---,0.00,VWS V14.01,2017-10-20 19:25:00,
2017-10-21 03:30:00,65.7,16.8,30.07,SSE,158,2.5,2.5,15,0.00,,---,0.00,VWS V14.01,2017-10-20 19:30:00,
2017-10-21 03:35:00,65.5,16.6,30.07,SSE,158,2.5,2.5,15,0.00,,---,0.00,VWS V14.01,2017-10-20 19:35:00,
2017-10-21 03:40:00,65.3,16.5,30.07,SSE,158,2.5,2.5,15,0.00,,---,0.00,VWS V14.01,2017-10-20 19:40:00,
2017-10-21 03:45:00,65.1,16.4,30.07,SSE,158,2.5,2.5,15,0.00,,---,0.00,VWS V14.01,2017-10-20 19:45:00,
2017-10-21 03:50:00,65.1,16.4,30.07,SSE,158,2.5,2.5,15,0.00,,---,0.00,VWS V14.01,2017-10-20 19:50:00,
2017-10-21 03:55:00,64.8,16.1,30.07,SSE,158,2.5,2.5,15,0.00,,---,0.00,VWS V14.01,2017-10-20 19:55:00,
2017-10-21 04:00:00,64.8,16.1,30.07,SSE,158,2.5,2.5,15,0.00,,---,0.00,VWS V14.01,2017-10-20 20:00:00,
2017-10-21 04:05:00,64.8,16.1,30.07,SSE,158,2.5,2.5,15,0.00,,---,0.00,VWS V14.01,2017-10-20 20:05:00,
2017-10-21 04:10:00,64.6,15.9,30.07,SSE,158,2.5,2.5,15,0.00,,---,0.00,VWS V14.01,2017-10-20 20:10:00,
2017-10-21 04:15:00,64.6,15.9,30.07,SSE,158,2.5,2.5,15,0.00,,---,0.00,VWS V14.01,2017-10-20 20:15:00,
2017-10-21 04:20:00,64.4,15.8,30.07,SSE,158,2.5,2.5,15,0.00,,---,0.00,VWS V14.01,2017-10-20 20:20:00,
2017-10-21 04:25:00,64.6,15.9,30.07,SSE,158,2.5,2.5,15,0.00,,---,0.00,VWS V14.01,2017-10-20 20:25:00,
2017-10-21 04:30:00,64.6,15.9,30.07,SSE,158,2.5,2.5,15,0.00,,---,0.00,VWS V14.01,2017-10-20 20:30:00,
2017-10-21 04:35:00,64.8,16.1,30.07,SSE,158,2.5,2.5,15,0.00,,---,0.00,VWS V14.01,2017-10-20 20:35:00,
2017-10-21 04:40:00,65.1,16.4,30.10,SSE,158,2.5,2.5,15,0.00,,---,0.00,VWS V14.01,2017-10-20 20:40:00,
2017-10-21 04:45:00,65.1,16.4,30.10,SSE,158,2.5,2.5,15,0.00,,---,0.00,VWS V14.01,2017-10-20 20:45:00,
2017-10-21 04:50:00,65.3,16.5,30.10,SSE,158,2.5,2.5,15,0.00,,---,0.00,VWS V14.01,2017-10-20 20:50:00,
2017-10-21 04:55:00,65.3,16.5,30.10,SSE,158,2.5,2.5,15,0.00,,---,0.00,VWS V14.01,2017-10-20 20:55:00,
2017-10-21 05:00:00,65.3,16.5,30.10,SSE,158,2.5,2.5,15,0.00,,---,0.00,VWS V14.01,2017-10-20 21:00:00,
2017-10-21 05:05:00,65.3,16.5,30.10,SSE,158,2.5,2.5,15,0.00,,---,0.00,VWS V14.01,2017-10-20 21:05:00,
2017-10-21 05:10:00,65.1,16.4,30.07,SSE,158,2.5,2.5,15,0.00,,---,0.00,VWS V14.01,2017-10-20 21:10:00,
2017-10-21 05:15:00,64.9,16.2,30.07,SSE,158,2.5,2.5,15,0.00,,---,0.00,VWS V14.01,2017-10-20 21:15:00,
2017-10-21 05:20:00,64.8,16.1,30.07,SSE,158,2.5,2.5,15,0.00,,---,0.00,VWS V14.01,2017-10-20 21:20:00,
2017-10-21 05:25:00,64.6,15.9,30.07,SSE,158,2.5,2.5,15,0.00,,---,0.00,VWS V14.01,2017-10-20 21:25:00,
2017-10-21 05:30:00,64.6,15.9,30.07,SSE,158,2.5,2.5,15,0.00,,---,0.00,VWS V14.01,2017-10-20 21:30:00,
2017-10-21 05:35:00,64.6,15.9,30.07,SSE,158,2.5,2.5,15,0.00,,---,0.00,VWS V14.01,2017-10-20 21:35:00,
2017-10-21 05:40:00,64.4,15.8,30.07,SSE,158,2.5,2.5,15,0.00,,---,0.00,VWS V14.01,2017-10-20 21:40:00,
2017-10-21 05:45:00,64.4,15.8,30.07,SSE,158,2.5,2.5,15,0.00,,---,0.00,VWS V14.01,2017-10-20 21:45:00,
2017-10-21 05:50:00,64.4,15.8,30.07,SSE,158,2.5,2.5,15,0.00,,---,0.00,VWS V14.01,2017-10-20 21:50:00,
2017-10-21 05:55:00,64.6,15.9,30.07,SSE,158,2.5,2.5,15,0.00,,---,0.00,VWS V14.01,2017-10-20 21:55:00,
2017-10-21 06:00:00,64.9,16.2,30.07,SSE,158,2.5,2.5,15,0.00,,---,0.00,VWS V14.01,2017-10-20 22:00:00,
2017-10-21 06:05:00,65.5,16.6,30.07,SSE,158,2.5,2.5,15,0.00,,---,0.00,VWS V14.01,2017-10-20 22:05:00,
2017-10-21 06:10:00,66.0,17.1,30.07,SSE,158,2.5,2.5,15,0.00,,---,0.00,VWS V14.01,2017-10-20 22:10:00,
2017-10-21 06:15:00,66.6,17.5,30.07,SSE,158,2.5,2.5,15,0.00,,---,0.00,VWS V14.01,2017-10-20 22:15:00,
2017-10-21 06:20:00,66.9,17.8,30.07,SSE,158,2.5,2.5,15,0.00,,---,0.00,VWS V14.01,2017-10-20 22:20:00,
2017-10-21 06:25:00,67.3,18.1,30.07,SSE,158,2.5,2.5,15,0.00,,---,0.00,VWS V14.01,2017-10-20 22:25:00,
2017-10-21 06:30:00,67.6,18.4,30.07,SSE,158,2.5,2.5,15,0.00,,---,0.00,VWS V14.01,2017-10-20 22:30:00,
2017-10-21 06:35:00,67.8,18.5,30.07,SSE,158,2.5,2.5,15,0.00,,---,0.00,VWS V14.01,2017-10-20 22:35:00,
2017-10-21 06:40:00,68.4,19.0,30.07,SSE,158,2.5,2.5,15,0.00,,---,0.00,VWS V14.01,2017-10-20 22:40:00,
2017-10-21 06:45:00,68.4,19.0,30.07,SSE,158,2.5,2.5,15,0.00,,---,0.00,VWS V14.01,2017-10-20 22:45:00,
2017-10-21 06:50:00,68.2,18.8,30.07,SSE,158,2.5,2.5,15,0.00,,---,0.00,VWS V14.01,2017-10-20 22:50:00,
2017-10-21 06:55:00,68.0,18.7,30.04,SSE,158,2.5,2.5,15,0.00,,---,0.00,VWS V14.01,2017-10-20 22:55:00,
2017-10-21 07:00:00,67.8,18.5,30.04,SSE,158,2.5,2.5,15,0.00,,---,0.00,VWS V14.01,2017-10-20 23:00:00,
2017-10-21 07:05:00,67.6,18.4,30.04,SSE,158,2.5,2.5,15,0.00,,---,0.00,VWS V14.01,2017-10-20 23:05:00,
2017-10-21 07:11:00,67.8,18.5,30.07,SSE,158,2.5,2.5,15,0.00,,---,0.00,VWS V14.01,2017-10-20 23:11:00,
2017-10-21 07:16:00,67.8,18.5,30.07,SSE,158,2.5,2.5,15,0.00,,---,0.00,VWS V14.01,2017-10-20 23:16:00,
2017-10-21 07:21:00,68.2,18.8,30.07,SSE,158,2.5,2.5,15,0.00,,---,0.00,VWS V14.01,2017-10-20 23:21:00,
2017-10-21 07:26:00,69.1,19.5,30.07,SSE,158,2.5,2.5,15,0.00,,---,0.00,VWS V14.01,2017-10-20 23:26:00,
2017-10-21 07:31:00,69.3,19.7,30.07,SSE,158,2.5,2.5,15,0.00,,---,0.00,VWS V14.01,2017-10-20 23:31:00,
2017-10-21 07:36:00,71.1,19.5,30.07,SSE,158,2.5,2.5,14,0.00,,---,0.00,VWS V14.01,2017-10-20 23:36:00,
2017-10-21 07:41:00,72.0,20.2,30.07,SSE,158,2.5,2.5,14,0.00,,---,0.00,VWS V14.01,2017-10-20 23:41:00,
2017-10-21 07:46:00,73.0,21.1,30.07,SSE,158,2.5,2.5,14,0.00,,---,0.00,VWS V14.01,2017-10-20 23:46:00,
2017-10-21 07:51:00,73.9,20.0,30.07,SSE,158,2.5,2.5,13,0.00,,---,0.00,VWS V14.01,2017-10-20 23:51:00,
2017-10-21 07:56:00,73.6,19.8,30.07,SSE,158,2.5,2.5,13,0.00,,---,0.00,VWS V14.01,2017-10-20 23:56:00,
2017-10-21 08:01:00,74.7,20.6,30.07,SSE,158,2.5,2.5,13,0.00,,---,0.00,VWS V14.01,2017-10-21 00:01:00,
2017-10-21 08:06:00,75.7,21.5,30.07,SSE,158,2.5,2.5,13,0.00,,---,0.00,VWS V14.01,2017-10-21 00:06:00,
2017-10-21 08:12:00,76.3,21.9,30.07,SSE,158,2.5,2.5,13,0.00,,---,0.00,VWS V14.01,2017-10-21 00:12:00,
2017-10-21 08:17:00,76.6,22.1,30.07,SSE,158,2.5,2.5,13,0.00,,---,0.00,VWS V14.01,2017-10-21 00:17:00,
2017-10-21 08:22:00,77.2,22.6,30.10,SSE,158,2.5,2.5,13,0.00,,---,0.00,VWS V14.01,2017-10-21 00:22:00,
2017-10-21 08:27:00,78.1,23.3,30.10,SSE,158,2.5,2.5,13,0.00,,---,0.00,VWS V14.01,2017-10-21 00:27:00,
2017-10-21 08:32:00,78.3,23.4,30.10,SSE,158,2.5,2.5,13,0.00,,---,0.00,VWS V14.01,2017-10-21 00:32:00,
2017-10-21 08:37:00,78.3,23.4,30.07,SSE,158,2.5,2.5,13,0.00,,---,0.00,VWS V14.01,2017-10-21 00:37:00,
2017-10-21 08:42:00,78.1,23.3,30.07,SSE,158,2.5,2.5,13,0.00,,---,0.00,VWS V14.01,2017-10-21 00:42:00,
2017-10-21 08:47:00,79.3,22.4,30.07,SSE,158,2.5,2.5,12,0.00,,---,0.00,VWS V14.01,2017-10-21 00:47:00,
2017-10-21 08:52:00,79.3,22.4,30.07,SSE,158,2.5,2.5,12,0.00,,---,0.00,VWS V14.01,2017-10-21 00:52:00,
2017-10-21 08:57:00,79.5,22.5,30.07,SSE,158,2.5,2.5,12,0.00,,---,0.00,VWS V14.01,2017-10-21 00:57:00,
2017-10-21 09:02:00,78.8,22.0,30.07,SSE,158,2.5,2.5,12,0.00,,---,0.00,VWS V14.01,2017-10-21 01:02:00,
2017-10-21 09:07:00,76.8,22.3,30.07,SSE,158,2.5,2.5,13,0.00,,---,0.00,VWS V14.01,2017-10-21 01:07:00,
2017-10-21 09:12:00,75.7,21.5,30.07,SSE,158,2.5,2.5,13,0.00,,---,0.00,VWS V14.01,2017-10-21 01:12:00,
2017-10-21 09:17:00,75.2,21.0,30.07,SSE,158,2.5,2.5,13,0.00,,---,0.00,VWS V14.01,2017-10-21 01:17:00,
2017-10-21 09:22:00,75.0,20.9,30.07,SSE,158,2.5,2.5,13,0.00,,---,0.00,VWS V14.01,2017-10-21 01:22:00,
2017-10-21 09:27:00,75.2,21.0,30.07,SSE,158,2.5,2.5,13,0.00,,---,0.00,VWS V14.01,2017-10-21 01:27:00,
2017-10-21 09:32:00,75.2,21.0,30.07,SSE,158,2.5,2.5,13,0.00,,---,0.00,VWS V14.01,2017-10-21 01:32:00,
2017-10-21 09:37:00,75.0,20.9,30.07,SSE,158,2.5,2.5,13,0.00,,---,0.00,VWS V14.01,2017-10-21 01:37:00,
2017-10-21 09:42:00,75.0,20.9,30.07,SSE,158,2.5,2.5,13,0.00,,---,0.00,VWS V14.01,2017-10-21 01:42:00,
2017-10-21 09:47:00,75.2,21.0,30.07,SSE,158,2.5,2.5,13,0.00,,---,0.00,VWS V14.01,2017-10-21 01:47:00,
2017-10-21 09:52:00,75.2,21.0,30.07,SSE,158,2.5,2.5,13,0.00,,---,0.00,VWS V14.01,2017-10-21 01:52:00,
2017-10-21 09:58:00,75.6,21.3,30.07,SSE,158,2.5,2.5,13,0.00,,---,0.00,VWS V14.01,2017-10-21 01:58:00,
2017-10-21 10:03:00,75.6,21.3,30.07,SSE,158,2.5,2.5,13,0.00,,---,0.00,VWS V14.01,2017-10-21 02:03:00,
2017-10-21 10:08:00,75.6,21.3,30.04,SSE,158,2.5,2.5,13,0.00,,---,0.00,VWS V14.01,2017-10-21 02:08:00,
2017-10-21 10:13:00,75.7,21.5,30.04,SSE,158,2.5,2.5,13,0.00,,---,0.00,VWS V14.01,2017-10-21 02:13:00,
2017-10-21 10:18:00,75.7,21.5,30.04,SSE,158,2.5,2.5,13,0.00,,---,0.00,VWS V14.01,2017-10-21 02:18:00,
2017-10-21 10:23:00,75.9,21.6,30.04,SSE,158,2.5,2.5,13,0.00,,---,0.00,VWS V14.01,2017-10-21 02:23:00,
2017-10-21 10:28:00,76.3,21.9,30.04,SSE,158,2.5,2.5,13,0.00,,---,0.00,VWS V14.01,2017-10-21 02:28:00,
2017-10-21 10:33:00,76.5,22.0,30.04,SSE,158,2.5,2.5,13,0.00,,---,0.00,VWS V14.01,2017-10-21 02:33:00,
2017-10-21 10:38:00,76.6,22.1,30.04,SSE,158,2.5,2.5,13,0.00,,---,0.00,VWS V14.01,2017-10-21 02:38:00,
2017-10-21 10:43:00,76.8,22.3,30.04,SSE,158,2.5,2.5,13,0.00,,---,0.00,VWS V14.01,2017-10-21 02:43:00,
2017-10-21 10:48:00,76.8,22.3,30.04,SSE,158,2.5,2.5,13,0.00,,---,0.00,VWS V14.01,2017-10-21 02:48:00,
2017-10-21 10:53:00,76.8,22.3,30.04,SSE,158,2.5,2.5,13,0.00,,---,0.00,VWS V14.01,2017-10-21 02:53:00,
2017-10-21 10:58:00,77.0,22.4,30.04,SSE,158,2.5,2.5,13,0.00,,---,0.00,VWS V14.01,2017-10-21 02:58:00,
2017-10-21 11:03:00,77.4,22.7,30.04,SSE,158,2.5,2.5,13,0.00,,---,0.00,VWS V14.01,2017-10-21 03:03:00,
2017-10-21 11:20:00,77.9,23.1,30.04,SSE,158,2.5,2.5,13,0.00,,---,0.00,VWS V14.01,2017-10-21 03:20:00,
2017-10-21 11:24:00,77.9,23.1,30.01,SSE,158,2.5,2.5,13,0.00,,---,0.00,VWS V14.01,2017-10-21 03:24:00,
2017-10-21 11:27:00,77.9,23.1,30.01,SSE,158,2.5,2.5,13,0.00,,---,0.00,VWS V14.01,2017-10-21 03:27:00,
2017-10-21 11:32:00,78.1,23.3,30.01,SSE,158,2.5,2.5,13,0.00,,---,0.00,VWS V14.01,2017-10-21 03:32:00,
2017-10-21 11:33:00,78.1,23.3,30.01,SSE,158,2.5,2.5,13,0.00,,---,0.00,VWS V14.01,2017-10-21 03:33:00,
2017-10-21 11:38:00,78.3,23.4,30.01,SSE,158,2.5,2.5,13,0.00,,---,0.00,VWS V14.01,2017-10-21 03:38:00,
2017-10-21 11:41:00,78.6,23.7,30.01,SSE,158,2.5,2.5,13,0.00,,---,0.00,VWS V14.01,2017-10-21 03:41:00,
2017-10-21 11:46:00,78.8,22.0,30.01,SSE,158,2.5,2.5,12,0.00,,---,0.00,VWS V14.01,2017-10-21 03:46:00,
2017-10-21 11:47:00,79.0,22.1,30.01,SSE,158,2.5,2.5,12,0.00,,---,0.00,VWS V14.01,2017-10-21 03:47:00,
2017-10-21 11:53:00,79.5,22.5,29.98,SSE,158,2.5,2.5,12,0.00,,---,0.00,VWS V14.01,2017-10-21 03:53:00,
2017-10-21 11:58:00,80.2,23.1,29.98,SSE,158,2.5,2.5,12,0.00,,---,0.00,VWS V14.01,2017-10-21 03:58:00,
2017-10-21 12:03:00,80.6,23.4,29.98,SSE,158,2.5,2.5,12,0.00,,---,0.00,VWS V14.01,2017-10-21 04:03:00,
2017-10-21 12:05:00,81.1,23.8,29.98,SSE,158,2.5,2.5,12,0.00,,---,0.00,VWS V14.01,2017-10-21 04:05:00,
2017-10-21 12:10:00,81.3,23.9,30.01,SSE,158,2.5,2.5,12,0.00,,---,0.00,VWS V14.01,2017-10-21 04:10:00,
2017-10-21 12:16:00,82.0,24.5,30.01,SSE,158,2.5,2.5,12,0.00,,---,0.00,VWS V14.01,2017-10-21 04:16:00,
2017-10-21 12:21:00,81.9,24.3,30.01,SSE,158,2.5,2.5,12,0.00,,---,0.00,VWS V14.01,2017-10-21 04:21:00,
2017-10-21 12:26:00,81.7,24.2,30.01,SSE,158,2.5,2.5,12,0.00,,---,0.00,VWS V14.01,2017-10-21 04:26:00,
2017-10-21 12:31:00,81.7,24.2,30.01,SSE,158,2.5,2.5,12,0.00,,---,0.00,VWS V14.01,2017-10-21 04:31:00,
2017-10-21 12:36:00,81.5,24.0,30.01,SSE,158,2.5,2.5,12,0.00,,---,0.00,VWS V14.01,2017-10-21 04:36:00,
2017-10-21 12:41:00,81.9,24.3,30.01,SSE,158,2.5,2.5,12,0.00,,---,0.00,VWS V14.01,2017-10-21 04:41:00,
2017-10-21 12:46:00,81.7,24.2,30.01,SSE,158,2.5,2.5,12,0.00,,---,0.00,VWS V14.01,2017-10-21 04:46:00,
2017-10-21 12:51:00,81.7,24.2,30.01,SSE,158,2.5,2.5,12,0.00,,---,0.00,VWS V14.01,2017-10-21 04:51:00,
2017-10-21 12:56:00,81.9,24.3,29.98,SSE,158,2.5,2.5,12,0.00,,---,0.00,VWS V14.01,2017-10-21 04:56:00,
2017-10-21 13:01:00,81.7,24.2,29.98,SSE,158,2.5,2.5,12,0.00,,---,0.00,VWS V14.01,2017-10-21 05:01:00,
2017-10-21 13:06:00,81.9,24.3,29.98,SSE,158,2.5,2.5,12,0.00,,---,0.00,VWS V14.01,2017-10-21 05:06:00,
2017-10-21 13:11:00,82.4,22.7,29.98,SSE,158,2.5,2.5,11,0.00,,---,0.00,VWS V14.01,2017-10-21 05:11:00,
2017-10-21 13:16:00,82.4,22.7,29.98,SSE,158,2.5,2.5,11,0.00,,---,0.00,VWS V14.01,2017-10-21 05:16:00,
2017-10-21 13:21:00,83.8,23.8,29.98,SSE,158,2.5,2.5,11,0.00,,---,0.00,VWS V14.01,2017-10-21 05:21:00,
2017-10-21 13:26:00,84.0,23.9,29.98,SSE,158,2.5,2.5,11,0.00,,---,0.00,VWS V14.01,2017-10-21 05:26:00,
2017-10-21 13:31:00,83.5,23.5,29.98,SSE,158,2.5,2.5,11,0.00,,---,0.00,VWS V14.01,2017-10-21 05:31:00,
2017-10-21 13:36:00,84.0,23.9,29.98,SSE,158,2.5,2.5,11,0.00,,---,0.00,VWS V14.01,2017-10-21 05:36:00,
2017-10-21 13:41:00,84.2,24.0,29.98,SSE,158,2.5,2.5,11,0.00,,---,0.00,VWS V14.01,2017-10-21 05:41:00,
2017-10-21 13:46:00,84.4,24.2,29.98,SSE,158,2.5,2.5,11,0.00,,---,0.00,VWS V14.01,2017-10-21 05:46:00,
2017-10-21 13:52:00,84.7,24.5,29.98,SSE,158,2.5,2.5,11,0.00,,---,0.00,VWS V14.01,2017-10-21 05:52:00,
2017-10-21 13:57:00,84.9,24.6,29.98,SSE,158,2.5,2.5,11,0.00,,---,0.00,VWS V14.01,2017-10-21 05:57:00,
2017-10-21 14:02:00,85.3,24.9,29.98,SSE,158,2.5,2.5,11,0.00,,---,0.00,VWS V14.01,2017-10-21 06:02:00,
2017-10-21 14:07:00,85.1,24.7,29.98,SSE,158,2.5,2.5,11,0.00,,---,0.00,VWS V14.01,2017-10-21 06:07:00,
2017-10-21 14:12:00,86.0,25.4,29.98,SSE,158,2.5,2.5,11,0.00,,---,0.00,VWS V14.01,2017-10-21 06:12:00,
2017-10-21 14:17:00,86.4,25.7,29.98,SSE,158,2.5,2.5,11,0.00,,---,0.00,VWS V14.01,2017-10-21 06:17:00,
2017-10-21 14:22:00,87.3,26.4,29.95,SSE,158,2.5,2.5,11,0.00,,---,0.00,VWS V14.01,2017-10-21 06:22:00,
2017-10-21 14:27:00,87.6,26.7,29.95,SSE,158,2.5,2.5,11,0.00,,---,0.00,VWS V14.01,2017-10-21 06:27:00,
2017-10-21 14:32:00,87.6,26.7,29.95,SSE,158,2.5,2.5,11,0.00,,---,0.00,VWS V14.01,2017-10-21 06:32:00,
2017-10-21 14:37:00,88.0,24.7,29.95,SSE,158,2.5,2.5,10,0.00,,---,0.00,VWS V14.01,2017-10-21 06:37:00,
2017-10-21 14:43:00,87.6,26.7,29.95,SSE,158,2.5,2.5,11,0.00,,---,0.00,VWS V14.01,2017-10-21 06:43:00,
2017-10-21 14:48:00,86.9,26.1,29.95,SSE,158,2.5,2.5,11,0.00,,---,0.00,VWS V14.01,2017-10-21 06:48:00,
2017-10-21 14:53:00,86.5,25.9,29.95,SSE,158,2.5,2.5,11,0.00,,---,0.00,VWS V14.01,2017-10-21 06:53:00,
2017-10-21 14:58:00,86.2,25.6,29.95,SSE,158,2.5,2.5,11,0.00,,---,0.00,VWS V14.01,2017-10-21 06:58:00,
2017-10-21 15:04:00,85.8,25.3,29.95,SSE,158,2.5,2.5,11,0.00,,---,0.00,VWS V14.01,2017-10-21 07:04:00,
2017-10-21 15:09:00,85.6,25.2,29.92,SSE,158,2.5,2.5,11,0.00,,---,0.00,VWS V14.01,2017-10-21 07:09:00,
2017-10-21 15:14:00,85.5,25.0,29.92,SSE,158,2.5,2.5,11,0.00,,---,0.00,VWS V14.01,2017-10-21 07:14:00,
2017-10-21 15:19:00,85.1,24.7,29.92,SSE,158,2.5,2.5,11,0.00,,---,0.00,VWS V14.01,2017-10-21 07:19:00,
2017-10-21 15:24:00,85.1,24.7,29.95,SSE,158,2.5,2.5,11,0.00,,---,0.00,VWS V14.01,2017-10-21 07:24:00,
2017-10-21 15:29:00,85.3,24.9,29.95,SSE,158,2.5,2.5,11,0.00,,---,0.00,VWS V14.01,2017-10-21 07:29:00,
2017-10-21 15:34:00,84.9,24.6,29.95,SSE,158,2.5,2.5,11,0.00,,---,0.00,VWS V14.01,2017-10-21 07:34:00,